Decoded Metar for LFBO (TOULOUSE BLAGNAC in FRANCE) (IATA:TLS) | Meteo·Mobile Aviation Weather
aviador You're here:

LFBO Decoded Metar

TOULOUSE BLAGNAC in FRANCE
Report Time2019-02-16 17:30:00
UTC Time2019-02-16 17:38:51
Flight Rules vfr VFR
Wind140° at 15 kt
W.Decomp.*RWY 14: 15.0 kt HW -0 kt LCW
W.Rank140° ranks 5
Current wind is above 140° avg. (9.5)
Visibility9999 m
Phenomena:N/A
Clouds:N/A
Expected CloudBase > 3,200 ft AGL from Temp-Dew spread
CeilingNone
Temp12°C (ISA -2)
Dew Point04°C (58% RH)
AAT5.3°C
QNH1024 hPa
Density Alt7 ft
Elevation502 ft
Report Wrong Elevation
Raw Report
METAR LFBO 161730Z AUTO 14015KT CAVOK 12/04 Q1024 TEMPO 13015G25KT=

Extra information for LFBO:More info

Metar Taf Metar & Taf Last 4 Metars F.Rules Stats Wind Profile Meteogram Temp Stats Airport Information Weather charts Add Link Nearby VenuesMetar ALERT Operation Metar Decoded Social comments